Time;durP1;ratioP1;P1;durP2;ratioP2;P2;SDS_P1;SDS_P2;PMS_P1;PMS_P2;Temp;Humidity;BMP_temperature;BMP_pressure;BME280_temperature;BME280_humidity;BME280_pressure;Samples;Min_cycle;Max_cycle;Signal;HPM_P1;HPM_P2
2022/11/15 00:02:05;;;;;;;5.23;4.73;;;;;;;;;;4978113;28;20210;-57
2022/11/15 00:04:46;;;;;;;5.87;5.33;;;;;;;;;;4994567;28;20194;-57
2022/11/15 00:07:13;;;;;;;6.30;5.70;;;;;;;;;;4989687;28;20721;-57
2022/11/15 00:09:41;;;;;;;5.93;5.33;;;;;;;;;;4974112;28;20696;-57
2022/11/15 00:12:17;;;;;;;5.37;4.70;;;;;;;;;;4995732;28;20183;-58
2022/11/15 00:14:43;;;;;;;5.30;4.80;;;;;;;;;;5004137;28;20297;-57
2022/11/15 00:17:09;;;;;;;7.00;5.47;;;;;;;;;;4987581;28;20661;-57
2022/11/15 00:19:35;;;;;;;5.73;5.20;;;;;;;;;;4994932;28;20539;-57
2022/11/15 00:22:01;;;;;;;6.47;5.40;;;;;;;;;;4992779;28;20210;-57
2022/11/15 00:24:27;;;;;;;5.97;5.07;;;;;;;;;;4974687;28;20246;-57
2022/11/15 00:26:53;;;;;;;5.93;5.40;;;;;;;;;;4980258;28;20202;-57
2022/11/15 00:29:20;;;;;;;5.73;5.23;;;;;;;;;;4970056;28;20537;-57
2022/11/15 00:31:46;;;;;;;7.47;6.27;;;;;;;;;;4972660;28;20302;-57
2022/11/15 00:34:12;;;;;;;5.90;4.87;;;;;;;;;;4982613;28;20250;-57
2022/11/15 00:36:38;;;;;;;5.50;5.00;;;;;;;;;;4987616;28;20183;-57
2022/11/15 00:39:07;;;;;;;5.83;4.70;;;;;;;;;;4989849;28;20278;-56
2022/11/15 00:41:36;;;;;;;6.83;5.40;;;;;;;;;;4974103;28;20218;-57
2022/11/15 00:44:02;;;;;;;4.90;4.50;;;;;;;;;;4981409;28;20226;-56
2022/11/15 00:46:29;;;;;;;6.90;5.13;;;;;;;;;;4992440;28;20260;-56
2022/11/15 00:48:55;;;;;;;4.90;4.40;;;;;;;;;;5002957;28;20514;-56
2022/11/15 00:51:30;;;;;;;5.63;5.13;;;;;;;;;;4984881;28;20551;-57
2022/11/15 00:53:59;;;;;;;5.33;4.83;;;;;;;;;;4999725;28;20200;-57
2022/11/15 00:56:29;;;;;;;6.23;5.43;;;;;;;;;;4985609;28;20228;-61
2022/11/15 00:59:04;;;;;;;6.27;5.63;;;;;;;;;;4992299;28;20246;-57
2022/11/15 01:01:33;;;;;;;5.70;5.17;;;;;;;;;;4995311;28;20217;-57
2022/11/15 01:03:59;;;;;;;5.33;4.83;;;;;;;;;;4974232;28;20288;-57
2022/11/15 01:06:25;;;;;;;5.83;5.33;;;;;;;;;;4974652;28;20227;-56
2022/11/15 01:08:51;;;;;;;6.03;5.37;;;;;;;;;;4970875;28;20644;-56
2022/11/15 01:11:20;;;;;;;5.93;4.77;;;;;;;;;;4995561;28;20199;-57
2022/11/15 01:13:46;;;;;;;5.10;4.70;;;;;;;;;;4989157;28;20218;-59
2022/11/15 01:16:14;;;;;;;6.73;5.70;;;;;;;;;;4985338;28;20194;-58
2022/11/15 01:18:40;;;;;;;6.50;5.10;;;;;;;;;;5003373;28;20200;-57
2022/11/15 01:21:08;;;;;;;5.63;5.07;;;;;;;;;;4976668;28;20564;-57
2022/11/15 01:23:34;;;;;;;6.27;5.60;;;;;;;;;;4978306;28;20180;-57
2022/11/15 01:26:01;;;;;;;6.43;5.83;;;;;;;;;;4985444;28;20299;-57
2022/11/15 01:28:30;;;;;;;6.63;5.30;;;;;;;;;;4997217;28;20183;-57
2022/11/15 01:30:58;;;;;;;7.40;5.40;;;;;;;;;;5010225;28;20258;-57
2022/11/15 01:33:24;;;;;;;5.43;4.90;;;;;;;;;;5011804;28;20186;-56
2022/11/15 01:35:56;;;;;;;6.00;5.03;;;;;;;;;;4972107;28;20183;-57
2022/11/15 01:38:23;;;;;;;5.80;4.83;;;;;;;;;;4992334;28;20178;-56
2022/11/15 01:40:52;;;;;;;5.90;4.80;;;;;;;;;;4974046;28;20182;-56
2022/11/15 01:43:22;;;;;;;5.63;5.10;;;;;;;;;;4991573;28;20326;-56
2022/11/15 01:45:51;;;;;;;9.43;5.20;;;;;;;;;;4986714;28;20282;-57
2022/11/15 01:48:18;;;;;;;5.63;4.77;;;;;;;;;;4998399;28;20277;-57
2022/11/15 01:50:44;;;;;;;5.23;4.33;;;;;;;;;;4991701;28;20601;-56
2022/11/15 01:53:10;;;;;;;6.37;4.70;;;;;;;;;;4987101;28;20631;-56
2022/11/15 01:55:37;;;;;;;6.03;5.30;;;;;;;;;;4997484;28;20191;-57
2022/11/15 01:58:04;;;;;;;5.07;4.57;;;;;;;;;;4973130;28;20525;-56
2022/11/15 02:00:30;;;;;;;6.00;4.80;;;;;;;;;;4988196;28;20194;-57
2022/11/15 02:03:02;;;;;;;5.50;4.87;;;;;;;;;;4986211;28;21226;-57
2022/11/15 02:05:29;;;;;;;5.70;5.20;;;;;;;;;;4985746;28;20551;-57
2022/11/15 02:07:55;;;;;;;4.73;4.23;;;;;;;;;;4990429;28;20178;-56
2022/11/15 02:10:23;;;;;;;5.97;5.17;;;;;;;;;;4989033;28;20182;-56
2022/11/15 02:12:49;;;;;;;5.10;4.60;;;;;;;;;;4978166;28;20183;-57
2022/11/15 02:15:15;;;;;;;6.30;4.43;;;;;;;;;;4972592;28;20608;-57
2022/11/15 02:17:51;;;;;;;4.70;4.30;;;;;;;;;;4989241;28;20238;-57
2022/11/15 02:20:40;;;;;;;5.17;4.63;;;;;;;;;;4976183;28;20961;-57
2022/11/15 02:23:25;;;;;;;5.30;4.73;;;;;;;;;;4989453;28;20211;-57
2022/11/15 02:25:54;;;;;;;5.93;5.43;;;;;;;;;;4988571;28;20206;-56
2022/11/15 02:28:32;;;;;;;6.50;5.20;;;;;;;;;;4990370;28;20195;-57
2022/11/15 02:31:01;;;;;;;5.70;5.20;;;;;;;;;;4995839;28;20218;-57
2022/11/15 02:33:36;;;;;;;5.80;4.97;;;;;;;;;;5001206;28;20398;-57
2022/11/15 02:36:03;;;;;;;5.57;5.07;;;;;;;;;;4990296;28;20187;-57
2022/11/15 02:38:41;;;;;;;6.53;5.07;;;;;;;;;;4977131;28;20355;-56
2022/11/15 02:41:13;;;;;;;6.23;4.97;;;;;;;;;;4975728;28;20479;-56
2022/11/15 02:43:56;;;;;;;5.27;4.73;;;;;;;;;;4986960;28;20187;-57
2022/11/15 02:49:14;;;;;;;5.07;4.67;;;;;;;;;;4988678;28;20282;-57
2022/11/15 02:51:41;;;;;;;4.90;4.40;;;;;;;;;;4971623;28;20274;-57
2022/11/15 02:54:07;;;;;;;5.60;4.97;;;;;;;;;;4981916;28;20230;-56
2022/11/15 02:56:34;;;;;;;5.90;4.63;;;;;;;;;;4990316;28;20246;-57
2022/11/15 02:59:13;;;;;;;5.37;4.87;;;;;;;;;;4999307;28;20187;-57
2022/11/15 03:01:44;;;;;;;7.23;4.97;;;;;;;;;;4972509;28;20203;-57
2022/11/15 03:04:18;;;;;;;5.07;4.53;;;;;;;;;;4980017;28;20713;-56
2022/11/15 03:06:50;;;;;;;5.33;4.83;;;;;;;;;;4970460;28;20182;-57
2022/11/15 03:09:29;;;;;;;5.20;4.67;;;;;;;;;;4978290;28;20656;-57
2022/11/15 03:11:59;;;;;;;6.00;5.40;;;;;;;;;;4992834;28;20183;-56
2022/11/15 03:14:30;;;;;;;5.20;4.50;;;;;;;;;;4990033;28;20235;-57
2022/11/15 03:16:56;;;;;;;5.17;4.57;;;;;;;;;;4992800;28;20748;-57
2022/11/15 03:19:41;;;;;;;4.63;4.23;;;;;;;;;;4979709;28;20195;-57
2022/11/15 03:22:10;;;;;;;5.00;4.50;;;;;;;;;;4997320;28;20286;-56
2022/11/15 03:24:38;;;;;;;5.83;5.10;;;;;;;;;;4978351;28;20222;-57
2022/11/15 03:27:06;;;;;;;5.20;4.67;;;;;;;;;;4973030;28;20182;-56
2022/11/15 03:29:38;;;;;;;6.07;5.47;;;;;;;;;;4979334;28;20764;-57
2022/11/15 03:32:06;;;;;;;5.50;4.93;;;;;;;;;;4985653;28;20191;-56
2022/11/15 03:34:32;;;;;;;7.80;5.20;;;;;;;;;;4980929;28;20214;-57
2022/11/15 03:36:58;;;;;;;6.90;5.20;;;;;;;;;;4990951;28;20171;-57
2022/11/15 03:39:25;;;;;;;5.60;5.00;;;;;;;;;;4977471;28;20199;-56
2022/11/15 03:42:00;;;;;;;5.80;4.47;;;;;;;;;;4971691;28;20293;-56
2022/11/15 03:44:45;;;;;;;5.77;5.17;;;;;;;;;;4985797;28;20575;-57
2022/11/15 03:47:33;;;;;;;7.23;4.60;;;;;;;;;;4977213;28;20203;-57
2022/11/15 03:50:01;;;;;;;7.97;5.10;;;;;;;;;;4996475;28;20708;-56
2022/11/15 03:52:31;;;;;;;5.47;4.60;;;;;;;;;;4992687;28;20188;-57
2022/11/15 03:55:00;;;;;;;6.10;5.10;;;;;;;;;;4979409;28;20676;-57
2022/11/15 03:57:26;;;;;;;5.43;4.87;;;;;;;;;;4988269;28;20186;-57
2022/11/15 03:59:52;;;;;;;5.40;4.73;;;;;;;;;;4971435;28;20183;-56
2022/11/15 04:02:19;;;;;;;4.90;4.50;;;;;;;;;;5000953;28;20573;-56
2022/11/15 04:04:45;;;;;;;6.27;4.93;;;;;;;;;;4975481;28;20278;-57
2022/11/15 04:07:11;;;;;;;5.90;5.30;;;;;;;;;;4989133;28;20194;-56
2022/11/15 04:12:30;;;;;;;9.17;5.50;;;;;;;;;;4996394;28;20234;-56
2022/11/15 04:15:09;;;;;;;5.83;5.13;;;;;;;;;;4973932;28;20604;-57
2022/11/15 04:17:35;;;;;;;5.00;4.50;;;;;;;;;;5008773;28;20652;-57
2022/11/15 04:25:31;;;;;;;5.43;4.90;;;;;;;;;;4988511;28;20202;-57
2022/11/15 04:27:57;;;;;;;6.23;4.87;;;;;;;;;;4976209;28;20210;-57
2022/11/15 04:30:23;;;;;;;7.57;5.13;;;;;;;;;;5005495;28;20189;-56
2022/11/15 04:32:49;;;;;;;6.93;4.40;;;;;;;;;;4970604;28;20670;-56
2022/11/15 04:35:15;;;;;;;5.97;4.70;;;;;;;;;;5005728;28;20802;-57
2022/11/15 04:37:41;;;;;;;5.13;4.67;;;;;;;;;;5001989;28;20186;-56
2022/11/15 04:40:08;;;;;;;6.67;5.97;;;;;;;;;;4982513;28;20202;-57
2022/11/15 04:42:34;;;;;;;5.53;5.03;;;;;;;;;;4968988;28;20666;-56
2022/11/15 04:45:00;;;;;;;4.50;4.10;;;;;;;;;;4985967;28;20185;-56
2022/11/15 04:47:27;;;;;;;4.87;4.47;;;;;;;;;;5005618;28;20627;-56
2022/11/15 04:49:53;;;;;;;4.80;4.40;;;;;;;;;;5005093;28;20393;-57
2022/11/15 04:52:19;;;;;;;5.03;4.53;;;;;;;;;;4995077;28;20274;-56
2022/11/15 04:54:46;;;;;;;6.43;4.40;;;;;;;;;;4985806;28;20213;-57
2022/11/15 04:57:12;;;;;;;5.33;4.57;;;;;;;;;;4983114;28;20581;-57
2022/11/15 04:59:38;;;;;;;6.20;5.30;;;;;;;;;;4995701;28;20225;-57
2022/11/15 05:02:04;;;;;;;5.00;4.60;;;;;;;;;;4985157;28;20216;-56
2022/11/15 05:04:30;;;;;;;4.67;4.27;;;;;;;;;;4987285;28;20179;-57
2022/11/15 05:06:56;;;;;;;5.10;4.60;;;;;;;;;;4969614;28;20183;-57
2022/11/15 05:09:22;;;;;;;4.97;4.43;;;;;;;;;;4989896;28;20183;-57
2022/11/15 05:11:48;;;;;;;5.90;4.40;;;;;;;;;;4992434;28;20194;-57
2022/11/15 05:14:15;;;;;;;4.40;4.00;;;;;;;;;;4979664;28;20349;-57
2022/11/15 05:16:41;;;;;;;4.77;3.83;;;;;;;;;;4979113;28;20696;-57
2022/11/15 05:19:07;;;;;;;4.10;3.80;;;;;;;;;;5005781;28;20458;-57
2022/11/15 05:21:33;;;;;;;4.57;4.17;;;;;;;;;;4988769;28;20214;-56
2022/11/15 05:24:00;;;;;;;4.50;4.10;;;;;;;;;;5000082;28;20718;-56
2022/11/15 05:26:26;;;;;;;4.83;4.03;;;;;;;;;;4989604;28;20202;-57
2022/11/15 05:28:54;;;;;;;7.23;4.57;;;;;;;;;;4973001;28;20190;-57
2022/11/15 05:31:20;;;;;;;4.40;4.00;;;;;;;;;;4984511;28;20681;-56
2022/11/15 05:33:46;;;;;;;4.80;4.37;;;;;;;;;;4984112;28;20194;-57
2022/11/15 05:36:18;;;;;;;5.43;4.93;;;;;;;;;;4986844;28;20183;-56
2022/11/15 05:38:44;;;;;;;5.17;4.00;;;;;;;;;;4980790;28;20277;-57
2022/11/15 05:41:11;;;;;;;4.60;4.20;;;;;;;;;;4974569;28;20202;-57
2022/11/15 05:43:38;;;;;;;4.77;4.33;;;;;;;;;;4983153;28;20244;-56
2022/11/15 05:46:05;;;;;;;5.10;4.17;;;;;;;;;;4989826;28;20226;-57
2022/11/15 05:48:38;;;;;;;4.67;4.13;;;;;;;;;;4978576;28;20728;-56
2022/11/15 05:51:05;;;;;;;4.67;4.27;;;;;;;;;;4997281;28;20613;-57
2022/11/15 05:53:31;;;;;;;4.73;4.33;;;;;;;;;;4993007;28;20216;-56
2022/11/15 05:55:57;;;;;;;5.27;4.77;;;;;;;;;;4993599;28;20262;-57
2022/11/15 05:58:23;;;;;;;4.00;3.70;;;;;;;;;;4993452;28;20181;-57
2022/11/15 06:00:49;;;;;;;5.23;4.83;;;;;;;;;;4973235;28;20215;-56
2022/11/15 06:03:15;;;;;;;5.53;5.03;;;;;;;;;;5004184;28;20217;-57
2022/11/15 06:05:41;;;;;;;5.17;4.70;;;;;;;;;;5003506;28;20282;-57
2022/11/15 06:08:07;;;;;;;5.00;4.50;;;;;;;;;;4988727;28;20540;-57
2022/11/15 06:10:33;;;;;;;4.90;4.33;;;;;;;;;;4989166;28;20262;-56
2022/11/15 06:13:00;;;;;;;4.77;4.37;;;;;;;;;;4971664;28;20178;-57
2022/11/15 06:15:26;;;;;;;5.63;4.60;;;;;;;;;;4998396;28;20308;-57
2022/11/15 06:17:57;;;;;;;7.50;4.07;;;;;;;;;;4995499;28;20484;-57
2022/11/15 06:20:23;;;;;;;5.23;4.47;;;;;;;;;;4981130;28;20186;-57
2022/11/15 06:22:49;;;;;;;5.30;4.80;;;;;;;;;;4994391;28;20217;-57
2022/11/15 06:25:15;;;;;;;5.50;4.80;;;;;;;;;;4973642;28;20186;-54
2022/11/15 06:27:41;;;;;;;6.83;5.83;;;;;;;;;;4990019;28;20471;-56
2022/11/15 06:30:07;;;;;;;6.77;5.97;;;;;;;;;;4998315;28;20486;-57
2022/11/15 06:32:33;;;;;;;6.43;5.33;;;;;;;;;;4997238;28;20187;-57
2022/11/15 06:34:59;;;;;;;5.07;4.57;;;;;;;;;;5002416;28;20244;-57
2022/11/15 06:37:25;;;;;;;5.33;4.70;;;;;;;;;;5005344;28;20509;-56
2022/11/15 06:39:51;;;;;;;5.40;4.93;;;;;;;;;;5007900;28;20169;-56
2022/11/15 06:42:17;;;;;;;6.87;5.13;;;;;;;;;;4987250;28;20210;-57
2022/11/15 06:44:43;;;;;;;5.00;4.50;;;;;;;;;;4997102;28;20229;-57
2022/11/15 06:47:09;;;;;;;4.83;4.30;;;;;;;;;;5007134;28;20193;-57
2022/11/15 06:49:35;;;;;;;4.73;4.33;;;;;;;;;;5008109;28;20509;-57
2022/11/15 06:52:01;;;;;;;5.90;5.07;;;;;;;;;;4982448;28;20662;-56
2022/11/15 06:54:27;;;;;;;5.20;4.73;;;;;;;;;;4976305;28;20291;-56
2022/11/15 06:56:53;;;;;;;5.77;5.20;;;;;;;;;;5006117;28;20276;-56
2022/11/15 06:59:19;;;;;;;5.07;4.13;;;;;;;;;;5006292;28;20248;-57
2022/11/15 07:01:46;;;;;;;4.10;3.73;;;;;;;;;;4987149;28;20218;-56
2022/11/15 07:04:12;;;;;;;4.90;4.40;;;;;;;;;;4995473;28;20201;-56
2022/11/15 07:06:38;;;;;;;5.40;4.27;;;;;;;;;;4970036;28;20190;-57
2022/11/15 07:09:04;;;;;;;5.10;4.60;;;;;;;;;;4989294;28;20229;-56
2022/11/15 07:11:30;;;;;;;4.60;4.23;;;;;;;;;;4987980;28;20151;-56
2022/11/15 07:13:56;;;;;;;5.10;4.60;;;;;;;;;;4979282;28;20387;-57
2022/11/15 07:16:22;;;;;;;5.13;4.33;;;;;;;;;;5006881;28;20182;-57
2022/11/15 07:18:48;;;;;;;5.50;5.00;;;;;;;;;;5000246;28;20269;-56
2022/11/15 07:21:14;;;;;;;4.20;3.80;;;;;;;;;;4997200;28;20211;-56
2022/11/15 07:23:40;;;;;;;4.77;4.37;;;;;;;;;;4977923;28;20608;-56
2022/11/15 07:26:07;;;;;;;5.20;4.70;;;;;;;;;;4982301;28;20179;-57
2022/11/15 07:28:33;;;;;;;4.40;4.10;;;;;;;;;;4984368;28;20206;-56
2022/11/15 07:31:02;;;;;;;5.07;4.00;;;;;;;;;;4990924;28;20174;-57
2022/11/15 07:33:28;;;;;;;4.37;3.97;;;;;;;;;;4981997;28;20665;-57
2022/11/15 07:35:54;;;;;;;4.13;3.63;;;;;;;;;;5000007;28;20183;-56
2022/11/15 07:38:20;;;;;;;5.20;3.97;;;;;;;;;;4976443;28;20193;-56
2022/11/15 07:40:47;;;;;;;3.40;3.13;;;;;;;;;;4988853;28;20178;-56
2022/11/15 07:43:13;;;;;;;6.37;4.13;;;;;;;;;;4982315;28;21806;-56
2022/11/15 07:45:43;;;;;;;3.70;3.40;;;;;;;;;;5005308;28;20645;-56
2022/11/15 07:48:09;;;;;;;4.00;3.70;;;;;;;;;;4987266;28;20253;-56
2022/11/15 07:50:35;;;;;;;4.30;3.90;;;;;;;;;;4988665;28;20170;-56
2022/11/15 07:53:01;;;;;;;4.40;4.00;;;;;;;;;;5005851;28;20155;-56
2022/11/15 07:55:29;;;;;;;4.10;3.70;;;;;;;;;;5006749;28;20178;-57
2022/11/15 07:58:05;;;;;;;3.70;3.33;;;;;;;;;;5006613;28;20514;-56
2022/11/15 08:00:32;;;;;;;4.10;3.30;;;;;;;;;;5005936;28;20179;-56
2022/11/15 08:03:15;;;;;;;4.03;3.63;;;;;;;;;;4988251;28;20201;-56
2022/11/15 08:05:41;;;;;;;3.53;3.03;;;;;;;;;;5006331;28;20461;-56
2022/11/15 08:08:08;;;;;;;3.70;3.40;;;;;;;;;;5009209;28;20673;-57
2022/11/15 08:10:35;;;;;;;3.43;3.13;;;;;;;;;;5004565;28;20182;-57
2022/11/15 08:13:09;;;;;;;4.00;2.97;;;;;;;;;;5006158;28;20181;-57
2022/11/15 08:15:35;;;;;;;3.33;3.03;;;;;;;;;;4992501;28;20225;-57
2022/11/15 08:18:04;;;;;;;3.00;2.70;;;;;;;;;;4987941;28;20175;-57
2022/11/15 08:20:30;;;;;;;2.90;2.60;;;;;;;;;;4996594;28;20182;-57
2022/11/15 08:22:57;;;;;;;2.80;2.60;;;;;;;;;;5006856;28;20199;-57
2022/11/15 08:25:25;;;;;;;3.40;2.50;;;;;;;;;;5020358;28;20175;-57
2022/11/15 08:27:52;;;;;;;2.80;2.60;;;;;;;;;;4980424;28;20488;-57
2022/11/15 08:30:18;;;;;;;3.27;2.67;;;;;;;;;;4991235;28;20664;-57
2022/11/15 08:32:44;;;;;;;3.27;2.80;;;;;;;;;;5005727;28;20636;-57
2022/11/15 08:35:10;;;;;;;2.80;2.60;;;;;;;;;;5025107;28;20174;-57
2022/11/15 08:37:36;;;;;;;2.97;2.67;;;;;;;;;;5021927;28;20617;-57
2022/11/15 08:40:02;;;;;;;4.03;2.90;;;;;;;;;;4987632;28;20185;-57
2022/11/15 08:42:28;;;;;;;3.37;2.57;;;;;;;;;;4987773;28;20206;-57
2022/11/15 08:44:54;;;;;;;3.43;2.63;;;;;;;;;;5004146;28;20178;-57
2022/11/15 08:47:20;;;;;;;2.73;2.53;;;;;;;;;;4987001;28;20204;-57
2022/11/15 08:49:46;;;;;;;3.03;2.70;;;;;;;;;;5004198;28;20604;-57
2022/11/15 08:52:14;;;;;;;2.80;2.60;;;;;;;;;;5002743;28;20194;-57
2022/11/15 08:54:40;;;;;;;2.23;2.13;;;;;;;;;;5005467;28;20178;-57
2022/11/15 08:57:06;;;;;;;3.03;2.77;;;;;;;;;;5005161;28;20520;-57
2022/11/15 08:59:32;;;;;;;3.07;2.77;;;;;;;;;;5007645;28;20178;-57
2022/11/15 09:01:58;;;;;;;3.47;2.20;;;;;;;;;;4978997;28;20468;-57
2022/11/15 09:04:25;;;;;;;2.70;2.40;;;;;;;;;;4986805;28;20186;-57
2022/11/15 09:06:51;;;;;;;2.67;2.47;;;;;;;;;;5005450;28;20205;-57
2022/11/15 09:09:17;;;;;;;2.70;2.50;;;;;;;;;;5005598;28;20356;-57
2022/11/15 09:11:43;;;;;;;3.07;2.77;;;;;;;;;;5005519;28;20182;-57
2022/11/15 09:14:11;;;;;;;2.90;2.70;;;;;;;;;;5007003;28;20708;-56
2022/11/15 09:16:37;;;;;;;4.07;2.40;;;;;;;;;;5004510;28;20174;-57
2022/11/15 09:19:03;;;;;;;2.37;2.17;;;;;;;;;;4999278;28;20189;-57
2022/11/15 09:21:29;;;;;;;3.33;2.57;;;;;;;;;;5004777;28;20191;-57
2022/11/15 09:23:55;;;;;;;2.93;2.67;;;;;;;;;;4987106;28;20186;-57
2022/11/15 09:26:21;;;;;;;3.27;2.80;;;;;;;;;;4980165;28;20475;-56
2022/11/15 09:28:47;;;;;;;3.67;2.83;;;;;;;;;;5005128;28;20174;-57
2022/11/15 09:31:13;;;;;;;2.60;2.40;;;;;;;;;;4987268;28;20553;-57
2022/11/15 09:33:39;;;;;;;3.77;2.70;;;;;;;;;;4982616;28;20650;-57
2022/11/15 09:36:09;;;;;;;4.37;2.87;;;;;;;;;;4976542;28;20206;-57
2022/11/15 09:38:36;;;;;;;4.33;2.50;;;;;;;;;;4985792;28;20182;-57
2022/11/15 09:41:14;;;;;;;3.77;2.90;;;;;;;;;;4986693;28;20163;-57
2022/11/15 09:43:49;;;;;;;3.10;2.80;;;;;;;;;;5005406;28;20155;-57
2022/11/15 09:46:30;;;;;;;5.10;2.60;;;;;;;;;;5006304;28;20351;-57
2022/11/15 09:49:00;;;;;;;2.77;2.57;;;;;;;;;;5024813;28;20170;-57
2022/11/15 09:51:26;;;;;;;2.30;2.10;;;;;;;;;;4993649;28;20210;-57
2022/11/15 09:54:04;;;;;;;2.80;2.60;;;;;;;;;;4989246;28;20183;-57
2022/11/15 09:56:32;;;;;;;3.70;2.40;;;;;;;;;;4999196;28;20811;-56
2022/11/15 09:59:16;;;;;;;2.57;2.37;;;;;;;;;;5005251;28;20355;-57
2022/11/15 10:01:50;;;;;;;3.43;2.07;;;;;;;;;;5003933;28;20198;-57
2022/11/15 10:04:16;;;;;;;2.70;2.50;;;;;;;;;;4987584;28;20162;-57
2022/11/15 10:06:47;;;;;;;2.57;2.30;;;;;;;;;;5004091;28;20261;-57
2022/11/15 10:09:17;;;;;;;2.57;2.27;;;;;;;;;;4984473;28;20197;-57
2022/11/15 10:11:44;;;;;;;2.53;1.80;;;;;;;;;;5000733;28;20187;-57
2022/11/15 10:14:11;;;;;;;3.63;2.80;;;;;;;;;;5006336;28;20676;-57
2022/11/15 10:16:40;;;;;;;3.60;2.00;;;;;;;;;;4998322;28;20768;-57
2022/11/15 10:19:21;;;;;;;3.67;2.00;;;;;;;;;;5009597;28;20522;-57
2022/11/15 10:21:54;;;;;;;1.90;1.80;;;;;;;;;;4977077;28;20506;-57
2022/11/15 10:24:21;;;;;;;4.30;2.20;;;;;;;;;;5001805;28;20221;-57
2022/11/15 10:26:47;;;;;;;4.00;1.67;;;;;;;;;;4997526;28;20214;-57
2022/11/15 10:29:18;;;;;;;2.20;2.00;;;;;;;;;;4975153;28;20179;-57
2022/11/15 10:31:44;;;;;;;3.93;2.03;;;;;;;;;;4983927;28;20667;-56
2022/11/15 10:34:11;;;;;;;1.93;1.77;;;;;;;;;;5018955;28;20186;-57
2022/11/15 10:36:37;;;;;;;2.10;1.90;;;;;;;;;;4983245;28;20680;-57
2022/11/15 10:39:03;;;;;;;1.70;1.60;;;;;;;;;;4988702;28;20618;-57
2022/11/15 10:41:31;;;;;;;1.60;1.50;;;;;;;;;;4984117;28;20202;-57
2022/11/15 10:44:12;;;;;;;1.90;1.70;;;;;;;;;;4999386;28;20183;-57
2022/11/15 10:46:39;;;;;;;1.60;1.50;;;;;;;;;;4995476;28;20198;-57
2022/11/15 10:49:14;;;;;;;2.60;1.70;;;;;;;;;;5008086;28;20167;-57
2022/11/15 10:51:43;;;;;;;2.13;1.87;;;;;;;;;;4985313;28;20248;-56
2022/11/15 10:54:11;;;;;;;3.97;2.47;;;;;;;;;;4990030;28;20180;-56
2022/11/15 10:56:37;;;;;;;2.17;1.70;;;;;;;;;;4977500;28;20183;-57
2022/11/15 10:59:03;;;;;;;3.70;1.87;;;;;;;;;;4975304;28;20201;-57
2022/11/15 11:01:30;;;;;;;3.40;1.90;;;;;;;;;;4998800;28;20202;-58
2022/11/15 11:04:02;;;;;;;2.00;1.77;;;;;;;;;;4979287;28;20646;-57
2022/11/15 11:06:28;;;;;;;2.13;1.87;;;;;;;;;;4973349;28;20171;-57
2022/11/15 11:08:55;;;;;;;2.47;1.70;;;;;;;;;;4974643;28;20292;-57
2022/11/15 11:11:21;;;;;;;2.60;1.83;;;;;;;;;;5007938;28;20686;-57
2022/11/15 11:13:47;;;;;;;1.90;1.70;;;;;;;;;;4990251;28;20167;-57
2022/11/15 11:16:13;;;;;;;1.90;1.70;;;;;;;;;;5008732;28;20229;-57
2022/11/15 11:18:48;;;;;;;1.93;1.67;;;;;;;;;;5006364;28;20178;-57
2022/11/15 11:21:19;;;;;;;1.60;1.50;;;;;;;;;;4999554;28;20260;-57
2022/11/15 11:23:48;;;;;;;2.83;1.67;;;;;;;;;;4970554;28;20164;-56
2022/11/15 11:26:33;;;;;;;4.73;1.70;;;;;;;;;;4988776;28;20276;-56
2022/11/15 11:29:17;;;;;;;2.63;1.57;;;;;;;;;;5027128;28;20226;-56
2022/11/15 11:32:08;;;;;;;1.60;1.50;;;;;;;;;;5020412;28;20559;-57
2022/11/15 11:34:44;;;;;;;2.17;1.90;;;;;;;;;;5000477;28;20191;-57
2022/11/15 11:37:29;;;;;;;3.30;2.07;;;;;;;;;;4969822;28;20282;-56
2022/11/15 11:40:04;;;;;;;3.10;1.50;;;;;;;;;;4987855;28;20257;-56
2022/11/15 11:42:36;;;;;;;1.80;1.50;;;;;;;;;;4988846;28;20213;-56
2022/11/15 11:45:19;;;;;;;2.47;1.70;;;;;;;;;;4989013;28;20170;-57
2022/11/15 11:47:52;;;;;;;1.87;1.57;;;;;;;;;;4972579;28;20270;-56
2022/11/15 11:50:27;;;;;;;1.90;1.47;;;;;;;;;;4987830;28;20191;-57
2022/11/15 11:52:57;;;;;;;2.37;1.73;;;;;;;;;;5003009;28;20196;-56
2022/11/15 11:55:33;;;;;;;3.57;2.60;;;;;;;;;;4989144;28;20187;-56
2022/11/15 11:58:18;;;;;;;2.33;1.53;;;;;;;;;;5007196;28;20205;-56
2022/11/15 12:00:56;;;;;;;2.73;2.20;;;;;;;;;;5001409;28;20268;-56
2022/11/15 12:03:25;;;;;;;5.07;1.63;;;;;;;;;;4986370;28;20202;-56
2022/11/15 12:06:00;;;;;;;1.67;1.57;;;;;;;;;;4986552;28;20245;-54
2022/11/15 12:08:44;;;;;;;1.80;1.60;;;;;;;;;;4991601;28;20231;-53
2022/11/15 12:11:16;;;;;;;2.73;1.80;;;;;;;;;;4977969;28;20653;-55
2022/11/15 12:13:43;;;;;;;5.00;2.00;;;;;;;;;;4990444;28;20178;-53
2022/11/15 12:16:18;;;;;;;5.07;1.70;;;;;;;;;;4993391;28;20227;-56
2022/11/15 12:18:47;;;;;;;2.53;1.70;;;;;;;;;;4999206;28;20457;-55
2022/11/15 12:21:16;;;;;;;1.67;1.40;;;;;;;;;;4997987;28;20629;-54
2022/11/15 12:23:46;;;;;;;2.50;1.70;;;;;;;;;;4997529;28;20187;-53
2022/11/15 12:26:27;;;;;;;2.50;1.70;;;;;;;;;;4982476;28;20242;-55
2022/11/15 12:28:57;;;;;;;1.53;1.43;;;;;;;;;;4985712;28;20657;-56
2022/11/15 12:31:35;;;;;;;1.87;1.50;;;;;;;;;;4986960;28;20206;-55
2022/11/15 12:34:13;;;;;;;4.13;1.70;;;;;;;;;;4999723;28;20645;-55
2022/11/15 12:36:46;;;;;;;4.53;1.83;;;;;;;;;;4987678;28;20187;-54
2022/11/15 12:39:13;;;;;;;2.07;1.70;;;;;;;;;;4979175;28;20213;-54
2022/11/15 12:41:59;;;;;;;1.77;1.67;;;;;;;;;;4990129;28;20219;-54
2022/11/15 12:44:31;;;;;;;2.77;1.90;;;;;;;;;;4969032;28;20192;-56
2022/11/15 12:46:57;;;;;;;1.70;1.60;;;;;;;;;;4996390;28;20214;-56
2022/11/15 12:49:23;;;;;;;2.40;1.60;;;;;;;;;;5000844;28;20266;-55
2022/11/15 12:51:50;;;;;;;3.30;1.63;;;;;;;;;;5001741;28;20425;-58
2022/11/15 12:54:22;;;;;;;1.80;1.40;;;;;;;;;;5004436;28;20171;-57
2022/11/15 12:57:04;;;;;;;4.27;1.70;;;;;;;;;;4999798;28;20818;-58
2022/11/15 12:59:48;;;;;;;7.50;2.97;;;;;;;;;;4987581;28;20194;-58
2022/11/15 13:02:17;;;;;;;3.00;2.80;;;;;;;;;;4980610;28;20720;-57
2022/11/15 13:04:43;;;;;;;2.30;1.83;;;;;;;;;;4983626;28;20270;-56
2022/11/15 13:07:30;;;;;;;1.97;1.80;;;;;;;;;;5004216;28;20250;-58
2022/11/15 13:09:56;;;;;;;2.57;1.40;;;;;;;;;;4986573;28;20277;-58
2022/11/15 13:12:22;;;;;;;1.93;1.83;;;;;;;;;;5004537;28;20229;-58
2022/11/15 13:15:03;;;;;;;1.53;1.40;;;;;;;;;;4981670;28;21110;-58
2022/11/15 13:17:49;;;;;;;2.60;1.47;;;;;;;;;;4979034;28;20737;-58
2022/11/15 13:20:15;;;;;;;2.80;2.33;;;;;;;;;;4985608;28;20681;-57
2022/11/15 13:22:51;;;;;;;3.77;1.57;;;;;;;;;;4975185;28;20612;-57
2022/11/15 13:25:20;;;;;;;3.10;1.87;;;;;;;;;;4985371;28;20249;-57
2022/11/15 13:27:50;;;;;;;2.90;1.60;;;;;;;;;;4984127;28;20175;-57
2022/11/15 13:30:23;;;;;;;3.43;1.73;;;;;;;;;;4977350;28;20279;-57
2022/11/15 13:32:50;;;;;;;1.60;1.50;;;;;;;;;;4966823;28;20176;-57
2022/11/15 13:35:24;;;;;;;1.83;1.73;;;;;;;;;;4985118;28;20259;-58
2022/11/15 13:37:51;;;;;;;2.67;1.77;;;;;;;;;;4976215;28;20185;-58
2022/11/15 13:40:17;;;;;;;1.77;1.67;;;;;;;;;;4961391;28;20727;-57
2022/11/15 13:42:43;;;;;;;3.90;1.50;;;;;;;;;;4960685;28;20222;-57
2022/11/15 13:45:13;;;;;;;2.93;1.80;;;;;;;;;;4971482;28;20189;-54
2022/11/15 13:47:39;;;;;;;3.77;2.10;;;;;;;;;;4982433;28;20703;-54
2022/11/15 13:50:05;;;;;;;1.73;1.50;;;;;;;;;;4975942;28;20692;-55
2022/11/15 13:52:33;;;;;;;3.37;1.67;;;;;;;;;;4969984;28;20702;-54
2022/11/15 13:55:08;;;;;;;2.47;2.27;;;;;;;;;;4981074;28;20536;-54
2022/11/15 13:57:42;;;;;;;1.93;1.73;;;;;;;;;;4982490;28;20646;-55
2022/11/15 14:00:32;;;;;;;2.47;1.63;;;;;;;;;;4981849;28;20226;-55
2022/11/15 14:03:06;;;;;;;3.43;1.53;;;;;;;;;;4977126;28;20712;-57
2022/11/15 14:05:32;;;;;;;3.93;1.50;;;;;;;;;;4987205;28;20174;-56
2022/11/15 14:07:59;;;;;;;3.33;1.90;;;;;;;;;;4987274;28;20649;-56
2022/11/15 14:10:28;;;;;;;2.07;1.40;;;;;;;;;;4971931;28;20175;-57
2022/11/15 14:12:54;;;;;;;1.60;1.50;;;;;;;;;;4975218;28;20221;-55
2022/11/15 14:15:36;;;;;;;3.60;1.70;;;;;;;;;;4982663;28;20708;-55
2022/11/15 14:18:03;;;;;;;4.17;1.90;;;;;;;;;;4998459;28;20454;-56
2022/11/15 14:20:34;;;;;;;5.80;1.70;;;;;;;;;;4993155;28;20187;-55
2022/11/15 14:23:04;;;;;;;1.97;1.63;;;;;;;;;;4996821;28;20579;-56
2022/11/15 14:25:31;;;;;;;1.90;1.40;;;;;;;;;;4997631;28;20221;-56
2022/11/15 14:28:09;;;;;;;1.67;1.57;;;;;;;;;;4993376;28;20172;-57
2022/11/15 14:30:35;;;;;;;2.20;1.60;;;;;;;;;;4980076;28;20474;-54
2022/11/15 14:33:02;;;;;;;3.17;1.73;;;;;;;;;;4999046;28;20206;-56
2022/11/15 14:35:28;;;;;;;2.40;1.60;;;;;;;;;;4989854;28;20217;-56
2022/11/15 14:37:54;;;;;;;3.50;1.80;;;;;;;;;;5004171;28;20522;-56
2022/11/15 14:40:21;;;;;;;2.80;1.57;;;;;;;;;;4995305;28;20774;-57
2022/11/15 14:42:48;;;;;;;1.53;1.43;;;;;;;;;;4993839;28;20211;-56
2022/11/15 14:45:19;;;;;;;3.30;1.60;;;;;;;;;;4994892;28;20223;-58
2022/11/15 14:47:45;;;;;;;3.27;1.73;;;;;;;;;;4976094;28;20211;-54
2022/11/15 14:50:15;;;;;;;1.83;1.53;;;;;;;;;;4996444;28;20210;-55
2022/11/15 14:52:42;;;;;;;6.27;1.80;;;;;;;;;;5004825;28;20194;-56
2022/11/15 14:55:14;;;;;;;2.67;1.70;;;;;;;;;;4995605;28;20299;-56
2022/11/15 14:57:40;;;;;;;4.90;2.17;;;;;;;;;;4996316;28;20187;-56
2022/11/15 15:00:08;;;;;;;3.77;2.33;;;;;;;;;;4995544;28;20190;-56
2022/11/15 15:02:34;;;;;;;1.80;1.70;;;;;;;;;;4997115;28;20265;-56
2022/11/15 15:05:02;;;;;;;2.13;1.93;;;;;;;;;;4998114;28;20229;-55
2022/11/15 15:07:28;;;;;;;3.87;2.00;;;;;;;;;;5000160;28;20190;-55